sensor_id;sensor_type;location;lat;lon;timestamp;pressure;altitude;pressure_sealevel;temperature;humidity
60019;BME280;45870;42.528;26.740;2023-05-23T00:02:09;99309.34;;;19.37;46.29
60019;BME280;45870;42.528;26.740;2023-05-23T00:04:37;99298.16;;;19.20;46.63
60019;BME280;45870;42.528;26.740;2023-05-23T00:07:03;99311.28;;;18.86;47.45
60019;BME280;45870;42.528;26.740;2023-05-23T00:09:30;99305.47;;;18.92;46.57
60019;BME280;45870;42.528;26.740;2023-05-23T00:11:55;99307.00;;;18.99;46.38
60019;BME280;45870;42.528;26.740;2023-05-23T00:14:21;99253.22;;;18.75;46.42
60019;BME280;45870;42.528;26.740;2023-05-23T00:16:48;99311.84;;;19.20;46.53
60019;BME280;45870;42.528;26.740;2023-05-23T00:19:14;99308.16;;;19.11;47.33
60019;BME280;45870;42.528;26.740;2023-05-23T00:21:41;99256.16;;;19.11;46.58
60019;BME280;45870;42.528;26.740;2023-05-23T00:24:08;99299.19;;;19.24;47.28
60019;BME280;45870;42.528;26.740;2023-05-23T00:26:35;99304.44;;;19.67;45.94
60019;BME280;45870;42.528;26.740;2023-05-23T00:29:01;99291.91;;;18.82;47.43
60019;BME280;45870;42.528;26.740;2023-05-23T00:31:26;99237.72;;;18.15;48.47
60019;BME280;45870;42.528;26.740;2023-05-23T00:33:52;99307.75;;;17.29;51.47
60019;BME280;45870;42.528;26.740;2023-05-23T00:36:18;99299.47;;;17.68;50.46
60019;BME280;45870;42.528;26.740;2023-05-23T00:38:44;99307.22;;;18.83;47.42
60019;BME280;45870;42.528;26.740;2023-05-23T00:41:14;99307.41;;;19.24;46.79
60019;BME280;45870;42.528;26.740;2023-05-23T00:43:40;99272.31;;;18.94;47.17
60019;BME280;45870;42.528;26.740;2023-05-23T00:46:06;99300.19;;;19.28;47.25
60019;BME280;45870;42.528;26.740;2023-05-23T00:48:33;99300.91;;;19.66;46.76
60019;BME280;45870;42.528;26.740;2023-05-23T00:50:59;99299.06;;;19.48;47.03
60019;BME280;45870;42.528;26.740;2023-05-23T00:53:25;99299.59;;;19.91;46.14
60019;BME280;45870;42.528;26.740;2023-05-23T00:55:51;99303.41;;;20.17;45.98
60019;BME280;45870;42.528;26.740;2023-05-23T00:58:17;99231.69;;;19.88;46.09
60019;BME280;45870;42.528;26.740;2023-05-23T01:00:43;99241.06;;;19.87;45.84
60019;BME280;45870;42.528;26.740;2023-05-23T01:03:14;99281.41;;;20.22;45.57
60019;BME280;45870;42.528;26.740;2023-05-23T01:05:43;99280.19;;;20.15;46.45
60019;BME280;45870;42.528;26.740;2023-05-23T01:08:09;99280.34;;;20.46;45.67
60019;BME280;45870;42.528;26.740;2023-05-23T01:10:35;99274.38;;;20.16;46.34
60019;BME280;45870;42.528;26.740;2023-05-23T01:13:22;99265.16;;;20.39;46.25
60019;BME280;45870;42.528;26.740;2023-05-23T01:16:00;99275.22;;;20.66;45.95
60019;BME280;45870;42.528;26.740;2023-05-23T01:18:38;99266.13;;;20.57;46.57
60019;BME280;45870;42.528;26.740;2023-05-23T01:21:11;99276.53;;;20.69;46.85
60019;BME280;45870;42.528;26.740;2023-05-23T01:27:00;99277.66;;;20.90;46.84
60019;BME280;45870;42.528;26.740;2023-05-23T01:29:42;99274.50;;;20.97;46.79
60019;BME280;45870;42.528;26.740;2023-05-23T01:32:11;99273.81;;;21.44;45.74
60019;BME280;45870;42.528;26.740;2023-05-23T01:34:38;99279.78;;;21.37;46.28
60019;BME280;45870;42.528;26.740;2023-05-23T01:37:09;99258.38;;;21.26;46.49
60019;BME280;45870;42.528;26.740;2023-05-23T01:39:36;99285.50;;;21.05;47.11
60019;BME280;45870;42.528;26.740;2023-05-23T01:42:03;99275.28;;;20.39;48.90
60019;BME280;45870;42.528;26.740;2023-05-23T01:44:29;99282.56;;;20.57;48.64
60019;BME280;45870;42.528;26.740;2023-05-23T01:46:56;99284.53;;;21.23;47.22
60019;BME280;45870;42.528;26.740;2023-05-23T01:49:22;99285.44;;;21.41;46.94
60019;BME280;45870;42.528;26.740;2023-05-23T01:51:49;99284.72;;;21.27;46.81
60019;BME280;45870;42.528;26.740;2023-05-23T01:54:15;99281.75;;;21.46;46.75
60019;BME280;45870;42.528;26.740;2023-05-23T01:56:41;99286.06;;;21.38;46.72
60019;BME280;45870;42.528;26.740;2023-05-23T01:59:08;99288.38;;;21.22;46.84
60019;BME280;45870;42.528;26.740;2023-05-23T02:01:34;99280.78;;;21.19;47.01
60019;BME280;45870;42.528;26.740;2023-05-23T02:04:00;99285.69;;;21.62;46.21
60019;BME280;45870;42.528;26.740;2023-05-23T02:06:25;99293.66;;;21.72;46.01
60019;BME280;45870;42.528;26.740;2023-05-23T02:08:51;99284.69;;;21.05;47.63
60019;BME280;45870;42.528;26.740;2023-05-23T02:11:17;99285.88;;;21.65;46.22
60019;BME280;45870;42.528;26.740;2023-05-23T02:13:43;99287.69;;;21.70;45.98
60019;BME280;45870;42.528;26.740;2023-05-23T02:16:08;99287.19;;;22.07;45.25
60019;BME280;45870;42.528;26.740;2023-05-23T02:18:34;99283.63;;;20.70;47.84
60019;BME280;45870;42.528;26.740;2023-05-23T02:21:03;99291.47;;;21.52;46.31
60019;BME280;45870;42.528;26.740;2023-05-23T02:23:29;99290.34;;;21.53;46.38
60019;BME280;45870;42.528;26.740;2023-05-23T02:25:55;99296.22;;;21.60;46.48
60019;BME280;45870;42.528;26.740;2023-05-23T02:28:21;99291.84;;;21.59;46.52
60019;BME280;45870;42.528;26.740;2023-05-23T02:30:47;99282.72;;;21.89;45.54
60019;BME280;45870;42.528;26.740;2023-05-23T02:33:12;99288.66;;;21.43;46.67
60019;BME280;45870;42.528;26.740;2023-05-23T02:35:38;99239.84;;;21.31;46.21
60019;BME280;45870;42.528;26.740;2023-05-23T02:38:04;99229.69;;;21.10;46.13
60019;BME280;45870;42.528;26.740;2023-05-23T02:40:30;99288.16;;;21.72;46.07
60019;BME280;45870;42.528;26.740;2023-05-23T02:42:56;99299.03;;;21.85;45.89
60019;BME280;45870;42.528;26.740;2023-05-23T02:45:22;99303.84;;;21.40;46.92
60019;BME280;45870;42.528;26.740;2023-05-23T02:47:48;99297.63;;;21.88;45.79
60019;BME280;45870;42.528;26.740;2023-05-23T02:50:14;99304.66;;;21.72;46.30
60019;BME280;45870;42.528;26.740;2023-05-23T02:52:40;99304.22;;;21.87;46.39
60019;BME280;45870;42.528;26.740;2023-05-23T02:55:07;99314.22;;;21.83;46.32
60019;BME280;45870;42.528;26.740;2023-05-23T02:57:33;99306.06;;;22.00;46.28
60019;BME280;45870;42.528;26.740;2023-05-23T02:59:59;99306.69;;;21.58;47.68
60019;BME280;45870;42.528;26.740;2023-05-23T03:02:24;99303.72;;;22.16;47.12
60019;BME280;45870;42.528;26.740;2023-05-23T03:04:51;99307.47;;;22.37;46.81
60019;BME280;45870;42.528;26.740;2023-05-23T03:07:16;99291.50;;;22.73;45.63
60019;BME280;45870;42.528;26.740;2023-05-23T03:09:42;99292.66;;;22.89;45.23
60019;BME280;45870;42.528;26.740;2023-05-23T03:12:08;99287.75;;;22.44;46.17
60019;BME280;45870;42.528;26.740;2023-05-23T03:14:34;99287.31;;;21.94;47.60
60019;BME280;45870;42.528;26.740;2023-05-23T03:16:59;99229.31;;;22.12;46.85
60019;BME280;45870;42.528;26.740;2023-05-23T03:19:27;99301.19;;;22.54;46.51
60019;BME280;45870;42.528;26.740;2023-05-23T03:21:53;99302.34;;;22.87;46.33
60019;BME280;45870;42.528;26.740;2023-05-23T03:24:19;99298.25;;;23.36;45.15
60019;BME280;45870;42.528;26.740;2023-05-23T03:26:44;99306.31;;;23.58;45.30
60019;BME280;45870;42.528;26.740;2023-05-23T03:29:10;99306.75;;;23.77;44.67
60019;BME280;45870;42.528;26.740;2023-05-23T03:31:36;99309.28;;;23.45;45.15
60019;BME280;45870;42.528;26.740;2023-05-23T03:34:02;99311.91;;;23.07;45.94
60019;BME280;45870;42.528;26.740;2023-05-23T03:36:30;99311.28;;;23.73;45.28
60019;BME280;45870;42.528;26.740;2023-05-23T03:39:00;99312.19;;;23.86;45.33
60019;BME280;45870;42.528;26.740;2023-05-23T03:41:26;99316.13;;;23.85;45.60
60019;BME280;45870;42.528;26.740;2023-05-23T03:43:51;99312.78;;;24.00;44.87
60019;BME280;45870;42.528;26.740;2023-05-23T03:46:17;99320.75;;;24.02;44.72
60019;BME280;45870;42.528;26.740;2023-05-23T03:48:43;99313.00;;;23.95;45.81
60019;BME280;45870;42.528;26.740;2023-05-23T03:51:09;99315.97;;;24.19;44.73
60019;BME280;45870;42.528;26.740;2023-05-23T03:53:35;99317.69;;;24.32;44.16
60019;BME280;45870;42.528;26.740;2023-05-23T03:56:01;99320.91;;;23.97;45.50
60019;BME280;45870;42.528;26.740;2023-05-23T03:58:26;99321.78;;;24.26;45.46
60019;BME280;45870;42.528;26.740;2023-05-23T04:00:52;99327.91;;;24.32;45.02
60019;BME280;45870;42.528;26.740;2023-05-23T04:03:19;99326.94;;;24.78;44.35
60019;BME280;45870;42.528;26.740;2023-05-23T04:05:44;99330.47;;;24.87;43.92
60019;BME280;45870;42.528;26.740;2023-05-23T04:08:10;99329.16;;;24.64;44.73
60019;BME280;45870;42.528;26.740;2023-05-23T04:10:36;99331.38;;;24.12;45.71
60019;BME280;45870;42.528;26.740;2023-05-23T04:13:02;99329.09;;;24.22;45.36
60019;BME280;45870;42.528;26.740;2023-05-23T04:15:27;99323.53;;;23.12;47.56
60019;BME280;45870;42.528;26.740;2023-05-23T04:17:53;99321.66;;;23.76;46.19
60019;BME280;45870;42.528;26.740;2023-05-23T04:20:19;99321.03;;;24.09;45.74
60019;BME280;45870;42.528;26.740;2023-05-23T04:22:44;99320.00;;;25.13;43.78
60019;BME280;45870;42.528;26.740;2023-05-23T04:25:10;99326.34;;;25.14;42.92
60019;BME280;45870;42.528;26.740;2023-05-23T04:27:36;99323.94;;;22.28;50.22
60019;BME280;45870;42.528;26.740;2023-05-23T04:30:06;99327.34;;;21.24;51.09
60019;BME280;45870;42.528;26.740;2023-05-23T04:32:33;99328.63;;;22.28;49.19
60019;BME280;45870;42.528;26.740;2023-05-23T04:35:00;99310.19;;;22.28;49.09
60019;BME280;45870;42.528;26.740;2023-05-23T04:37:29;99330.34;;;23.32;46.77
60019;BME280;45870;42.528;26.740;2023-05-23T04:39:57;99297.59;;;22.36;48.59
60019;BME280;45870;42.528;26.740;2023-05-23T04:42:24;99340.69;;;22.01;50.88
60019;BME280;45870;42.528;26.740;2023-05-23T04:44:50;99341.25;;;21.89;51.14
60019;BME280;45870;42.528;26.740;2023-05-23T04:47:17;99344.34;;;21.88;50.93
60019;BME280;45870;42.528;26.740;2023-05-23T04:49:44;99340.66;;;22.40;50.05
60019;BME280;45870;42.528;26.740;2023-05-23T04:52:09;99321.28;;;23.14;47.79
60019;BME280;45870;42.528;26.740;2023-05-23T04:54:35;99347.50;;;25.10;44.43
60019;BME280;45870;42.528;26.740;2023-05-23T04:57:02;99342.44;;;24.91;43.40
60019;BME280;45870;42.528;26.740;2023-05-23T04:59:27;99298.75;;;24.72;44.52
60019;BME280;45870;42.528;26.740;2023-05-23T05:01:53;99346.66;;;24.68;44.94
60019;BME280;45870;42.528;26.740;2023-05-23T05:04:19;99346.91;;;24.25;46.36
60019;BME280;45870;42.528;26.740;2023-05-23T05:06:45;99353.81;;;24.40;45.88
60019;BME280;45870;42.528;26.740;2023-05-23T05:09:12;99353.53;;;26.87;41.25
60019;BME280;45870;42.528;26.740;2023-05-23T05:11:38;99356.19;;;27.78;40.07
60019;BME280;45870;42.528;26.740;2023-05-23T05:14:04;99355.13;;;28.46;38.23
60019;BME280;45870;42.528;26.740;2023-05-23T05:16:29;99356.53;;;28.40;38.80
60019;BME280;45870;42.528;26.740;2023-05-23T05:18:56;99352.06;;;26.65;41.11
60019;BME280;45870;42.528;26.740;2023-05-23T05:21:21;99358.63;;;27.52;39.92
60019;BME280;45870;42.528;26.740;2023-05-23T05:23:47;99369.03;;;25.70;43.43
60019;BME280;45870;42.528;26.740;2023-05-23T05:26:13;99363.34;;;25.33;43.27
60019;BME280;45870;42.528;26.740;2023-05-23T05:28:38;99330.53;;;23.82;46.55
60019;BME280;45870;42.528;26.740;2023-05-23T05:31:05;99362.63;;;25.24;43.96
60019;BME280;45870;42.528;26.740;2023-05-23T05:33:31;99365.09;;;24.55;45.55
60019;BME280;45870;42.528;26.740;2023-05-23T05:36:02;99357.59;;;24.85;45.12
60019;BME280;45870;42.528;26.740;2023-05-23T05:38:28;99353.38;;;23.91;45.61
60019;BME280;45870;42.528;26.740;2023-05-23T05:40:53;99365.66;;;25.31;43.37
60019;BME280;45870;42.528;26.740;2023-05-23T05:43:19;99369.03;;;25.70;43.56
60019;BME280;45870;42.528;26.740;2023-05-23T05:45:45;99374.44;;;26.36;41.39
60019;BME280;45870;42.528;26.740;2023-05-23T05:48:11;99372.53;;;27.40;39.70
60019;BME280;45870;42.528;26.740;2023-05-23T05:50:37;99363.34;;;27.52;39.21
60019;BME280;45870;42.528;26.740;2023-05-23T05:53:03;99368.09;;;28.42;37.65
60019;BME280;45870;42.528;26.740;2023-05-23T05:55:28;99366.66;;;28.98;36.61
60019;BME280;45870;42.528;26.740;2023-05-23T05:57:54;99371.13;;;28.05;37.50
60019;BME280;45870;42.528;26.740;2023-05-23T06:00:20;99378.38;;;26.47;41.96
60019;BME280;45870;42.528;26.740;2023-05-23T06:02:46;99333.06;;;26.39;39.46
60019;BME280;45870;42.528;26.740;2023-05-23T06:05:13;99373.81;;;25.81;41.45
60019;BME280;45870;42.528;26.740;2023-05-23T06:07:41;99374.47;;;26.23;42.00
60019;BME280;45870;42.528;26.740;2023-05-23T06:10:07;99326.75;;;25.04;43.25
60019;BME280;45870;42.528;26.740;2023-05-23T06:12:34;99372.78;;;25.98;39.54
60019;BME280;45870;42.528;26.740;2023-05-23T06:15:00;99371.59;;;25.75;41.41
60019;BME280;45870;42.528;26.740;2023-05-23T06:17:27;99339.63;;;25.53;41.82
60019;BME280;45870;42.528;26.740;2023-05-23T06:19:52;99371.72;;;25.78;41.99
60019;BME280;45870;42.528;26.740;2023-05-23T06:22:18;99368.84;;;27.08;40.25
60019;BME280;45870;42.528;26.740;2023-05-23T06:24:44;99372.66;;;26.92;40.29
60019;BME280;45870;42.528;26.740;2023-05-23T06:27:11;99371.84;;;27.03;41.19
60019;BME280;45870;42.528;26.740;2023-05-23T06:29:37;99377.56;;;26.34;42.94
60019;BME280;45870;42.528;26.740;2023-05-23T06:32:04;99375.13;;;26.69;40.92
60019;BME280;45870;42.528;26.740;2023-05-23T06:34:30;99374.13;;;26.37;41.43
60019;BME280;45870;42.528;26.740;2023-05-23T06:36:55;99360.94;;;28.56;36.48
60019;BME280;45870;42.528;26.740;2023-05-23T06:39:21;99376.47;;;30.11;32.98
60019;BME280;45870;42.528;26.740;2023-05-23T06:41:47;99378.66;;;29.21;34.23
60019;BME280;45870;42.528;26.740;2023-05-23T06:44:13;99369.56;;;30.77;33.92
60019;BME280;45870;42.528;26.740;2023-05-23T06:46:41;99383.50;;;30.28;32.38
60019;BME280;45870;42.528;26.740;2023-05-23T06:49:07;99387.06;;;30.51;34.36
60019;BME280;45870;42.528;26.740;2023-05-23T06:51:33;99374.84;;;29.10;33.65
60019;BME280;45870;42.528;26.740;2023-05-23T06:53:58;99383.44;;;28.36;35.95
60019;BME280;45870;42.528;26.740;2023-05-23T06:56:24;99378.34;;;29.07;34.98
60019;BME280;45870;42.528;26.740;2023-05-23T06:58:50;99378.78;;;28.24;35.25
60019;BME280;45870;42.528;26.740;2023-05-23T07:01:16;99383.19;;;28.75;35.12
60019;BME280;45870;42.528;26.740;2023-05-23T07:03:42;99371.84;;;28.02;36.06
60019;BME280;45870;42.528;26.740;2023-05-23T07:06:10;99372.03;;;26.58;39.21
60019;BME280;45870;42.528;26.740;2023-05-23T07:08:36;99312.72;;;26.84;38.20
60019;BME280;45870;42.528;26.740;2023-05-23T07:11:02;99359.38;;;25.76;39.79
60019;BME280;45870;42.528;26.740;2023-05-23T07:13:28;99353.94;;;27.68;36.97
60019;BME280;45870;42.528;26.740;2023-05-23T07:15:54;99352.13;;;27.33;37.15
60019;BME280;45870;42.528;26.740;2023-05-23T07:18:22;99341.94;;;27.37;38.15
60019;BME280;45870;42.528;26.740;2023-05-23T07:20:48;99347.41;;;27.21;38.15
60019;BME280;45870;42.528;26.740;2023-05-23T07:23:14;99349.44;;;26.56;36.60
60019;BME280;45870;42.528;26.740;2023-05-23T07:25:40;99339.53;;;26.95;37.58
60019;BME280;45870;42.528;26.740;2023-05-23T07:28:07;99333.09;;;25.58;38.65
60019;BME280;45870;42.528;26.740;2023-05-23T07:30:33;99334.47;;;28.27;37.44
60019;BME280;45870;42.528;26.740;2023-05-23T07:32:59;99337.72;;;27.70;36.54
60019;BME280;45870;42.528;26.740;2023-05-23T07:35:25;99332.72;;;27.92;35.37
60019;BME280;45870;42.528;26.740;2023-05-23T07:37:51;99332.69;;;26.65;36.60
60019;BME280;45870;42.528;26.740;2023-05-23T07:40:17;99333.22;;;28.25;34.71
60019;BME280;45870;42.528;26.740;2023-05-23T07:42:43;99336.28;;;28.90;34.24
60019;BME280;45870;42.528;26.740;2023-05-23T07:45:12;99336.16;;;29.02;33.03
60019;BME280;45870;42.528;26.740;2023-05-23T07:47:38;99331.56;;;29.09;31.82
60019;BME280;45870;42.528;26.740;2023-05-23T07:50:04;99312.50;;;30.14;32.07
60019;BME280;45870;42.528;26.740;2023-05-23T07:52:31;99334.13;;;30.02;32.61
60019;BME280;45870;42.528;26.740;2023-05-23T07:54:57;99330.72;;;28.90;34.69
60019;BME280;45870;42.528;26.740;2023-05-23T07:57:23;99291.19;;;28.61;33.34
60019;BME280;45870;42.528;26.740;2023-05-23T07:59:49;99337.84;;;30.09;30.93
60019;BME280;45870;42.528;26.740;2023-05-23T08:02:16;99343.84;;;28.39;32.90
60019;BME280;45870;42.528;26.740;2023-05-23T08:04:42;99340.78;;;29.52;31.38
60019;BME280;45870;42.528;26.740;2023-05-23T08:07:07;99318.19;;;29.34;30.56
60019;BME280;45870;42.528;26.740;2023-05-23T08:09:34;99333.88;;;27.91;34.95
60019;BME280;45870;42.528;26.740;2023-05-23T08:12:00;99340.03;;;28.97;30.91
60019;BME280;45870;42.528;26.740;2023-05-23T08:14:26;99344.84;;;28.31;32.64
60019;BME280;45870;42.528;26.740;2023-05-23T08:16:52;99281.81;;;27.25;34.71
60019;BME280;45870;42.528;26.740;2023-05-23T08:19:17;99276.13;;;28.97;31.50
60019;BME280;45870;42.528;26.740;2023-05-23T08:21:44;99156.84;;;26.43;33.58
60019;BME280;45870;42.528;26.740;2023-05-23T08:24:10;99332.56;;;28.32;33.44
60019;BME280;45870;42.528;26.740;2023-05-23T08:26:38;99292.56;;;29.25;31.01
60019;BME280;45870;42.528;26.740;2023-05-23T08:29:03;99327.13;;;28.54;32.62
60019;BME280;45870;42.528;26.740;2023-05-23T08:31:30;99336.03;;;27.38;34.09
60019;BME280;45870;42.528;26.740;2023-05-23T08:33:56;99330.13;;;27.67;34.74
60019;BME280;45870;42.528;26.740;2023-05-23T09:05:02;99347.72;;;28.85;32.36
60019;BME280;45870;42.528;26.740;2023-05-23T09:07:29;99342.06;;;29.00;32.59
60019;BME280;45870;42.528;26.740;2023-05-23T09:09:55;99346.97;;;28.88;33.42
60019;BME280;45870;42.528;26.740;2023-05-23T09:12:20;99344.13;;;28.84;33.24
60019;BME280;45870;42.528;26.740;2023-05-23T09:14:49;99313.06;;;28.28;33.30
60019;BME280;45870;42.528;26.740;2023-05-23T09:17:17;99339.41;;;28.69;33.66
60019;BME280;45870;42.528;26.740;2023-05-23T09:19:43;99303.47;;;28.25;33.42
60019;BME280;45870;42.528;26.740;2023-05-23T09:22:11;99334.81;;;27.79;35.95
60019;BME280;45870;42.528;26.740;2023-05-23T09:24:37;99344.53;;;27.73;36.49
60019;BME280;45870;42.528;26.740;2023-05-23T09:27:04;99336.94;;;28.33;35.35
60019;BME280;45870;42.528;26.740;2023-05-23T09:29:31;99353.50;;;27.98;34.69
60019;BME280;45870;42.528;26.740;2023-05-23T09:32:11;99349.06;;;28.75;34.46
60019;BME280;45870;42.528;26.740;2023-05-23T09:34:41;99357.94;;;28.81;34.48
60019;BME280;45870;42.528;26.740;2023-05-23T09:37:10;99328.44;;;28.41;33.72
60019;BME280;45870;42.528;26.740;2023-05-23T09:39:37;99362.28;;;28.00;33.16
60019;BME280;45870;42.528;26.740;2023-05-23T09:42:03;99354.47;;;28.05;33.40
60019;BME280;45870;42.528;26.740;2023-05-23T09:44:29;99345.28;;;27.86;35.15
60019;BME280;45870;42.528;26.740;2023-05-23T09:46:55;99342.59;;;28.20;34.59
60019;BME280;45870;42.528;26.740;2023-05-23T09:49:20;99350.97;;;28.71;34.10
60019;BME280;45870;42.528;26.740;2023-05-23T09:51:57;99320.03;;;28.72;33.47
60019;BME280;45870;42.528;26.740;2023-05-23T09:54:22;99345.25;;;29.37;33.53
60019;BME280;45870;42.528;26.740;2023-05-23T09:56:51;99348.63;;;28.07;34.72
60019;BME280;45870;42.528;26.740;2023-05-23T09:59:20;99343.56;;;28.44;33.83
60019;BME280;45870;42.528;26.740;2023-05-23T10:01:50;99344.41;;;29.17;33.35
60019;BME280;45870;42.528;26.740;2023-05-23T10:04:20;99306.31;;;29.18;32.09
60019;BME280;45870;42.528;26.740;2023-05-23T10:06:51;99343.03;;;29.46;32.04
60019;BME280;45870;42.528;26.740;2023-05-23T10:09:20;99338.94;;;30.50;29.97
60019;BME280;45870;42.528;26.740;2023-05-23T10:12:21;99341.31;;;28.49;34.40
60019;BME280;45870;42.528;26.740;2023-05-23T10:15:04;99337.47;;;30.90;30.91
60019;BME280;45870;42.528;26.740;2023-05-23T10:17:55;99335.94;;;31.22;30.29
60019;BME280;45870;42.528;26.740;2023-05-23T10:20:24;99341.09;;;30.38;30.30
60019;BME280;45870;42.528;26.740;2023-05-23T10:22:51;99339.59;;;29.95;30.78
60019;BME280;45870;42.528;26.740;2023-05-23T10:25:18;99344.91;;;28.50;32.79
60019;BME280;45870;42.528;26.740;2023-05-23T10:27:44;99304.09;;;28.35;31.99
60019;BME280;45870;42.528;26.740;2023-05-23T10:30:14;99343.97;;;28.11;34.93
60019;BME280;45870;42.528;26.740;2023-05-23T10:32:40;99338.13;;;29.20;33.12
60019;BME280;45870;42.528;26.740;2023-05-23T10:35:09;99333.81;;;28.85;32.81
60019;BME280;45870;42.528;26.740;2023-05-23T10:45:45;99323.41;;;30.00;31.93
60019;BME280;45870;42.528;26.740;2023-05-23T10:48:21;99330.81;;;28.74;33.22
60019;BME280;45870;42.528;26.740;2023-05-23T10:51:01;99330.47;;;29.33;33.45
60019;BME280;45870;42.528;26.740;2023-05-23T10:53:30;99333.28;;;29.17;34.38
60019;BME280;45870;42.528;26.740;2023-05-23T10:55:56;99331.63;;;28.74;34.02
60019;BME280;45870;42.528;26.740;2023-05-23T10:58:22;99318.47;;;28.56;33.89
60019;BME280;45870;42.528;26.740;2023-05-23T11:00:56;99334.38;;;28.08;35.08
60019;BME280;45870;42.528;26.740;2023-05-23T11:06:31;99324.38;;;28.89;34.39
60019;BME280;45870;42.528;26.740;2023-05-23T11:09:02;99314.34;;;29.42;31.70
60019;BME280;45870;42.528;26.740;2023-05-23T11:11:51;99329.41;;;30.29;31.84
60019;BME280;45870;42.528;26.740;2023-05-23T11:14:17;99323.22;;;29.29;32.79
60019;BME280;45870;42.528;26.740;2023-05-23T11:16:44;99324.47;;;29.12;33.45
60019;BME280;45870;42.528;26.740;2023-05-23T11:21:48;99322.06;;;29.71;32.00
60019;BME280;45870;42.528;26.740;2023-05-23T11:24:14;99327.84;;;30.54;30.81
60019;BME280;45870;42.528;26.740;2023-05-23T11:26:57;99320.97;;;31.04;29.89
60019;BME280;45870;42.528;26.740;2023-05-23T11:29:28;99317.19;;;29.65;32.32
60019;BME280;45870;42.528;26.740;2023-05-23T11:31:55;99275.38;;;29.00;33.49
60019;BME280;45870;42.528;26.740;2023-05-23T11:34:24;99280.03;;;29.54;31.29
60019;BME280;45870;42.528;26.740;2023-05-23T11:36:55;99314.78;;;30.09;31.22
60019;BME280;45870;42.528;26.740;2023-05-23T11:39:22;99316.47;;;29.49;33.62
60019;BME280;45870;42.528;26.740;2023-05-23T11:42:01;99307.25;;;28.68;34.37
60019;BME280;45870;42.528;26.740;2023-05-23T11:44:28;99307.53;;;29.82;32.13
60019;BME280;45870;42.528;26.740;2023-05-23T11:47:04;99280.91;;;31.15;29.62
60019;BME280;45870;42.528;26.740;2023-05-23T11:49:35;99309.19;;;30.32;30.30
60019;BME280;45870;42.528;26.740;2023-05-23T11:52:05;99311.84;;;29.56;31.34
60019;BME280;45870;42.528;26.740;2023-05-23T11:54:32;99310.31;;;28.82;32.41
60019;BME280;45870;42.528;26.740;2023-05-23T11:56:58;99309.53;;;28.82;32.92
60019;BME280;45870;42.528;26.740;2023-05-23T11:59:25;99302.19;;;29.92;32.36
60019;BME280;45870;42.528;26.740;2023-05-23T12:01:51;99302.88;;;29.66;30.54
60019;BME280;45870;42.528;26.740;2023-05-23T12:04:17;99295.22;;;29.60;32.66
60019;BME280;45870;42.528;26.740;2023-05-23T12:06:47;99251.41;;;29.31;31.79
60019;BME280;45870;42.528;26.740;2023-05-23T12:09:14;99292.06;;;28.81;32.93
60019;BME280;45870;42.528;26.740;2023-05-23T12:11:41;99146.91;;;26.82;35.91
60019;BME280;45870;42.528;26.740;2023-05-23T12:14:08;99297.31;;;27.85;35.82
60019;BME280;45870;42.528;26.740;2023-05-23T12:16:35;99302.31;;;27.95;35.00
60019;BME280;45870;42.528;26.740;2023-05-23T12:19:01;99289.41;;;28.18;33.96
60019;BME280;45870;42.528;26.740;2023-05-23T12:21:44;99300.78;;;27.66;34.65
60019;BME280;45870;42.528;26.740;2023-05-23T12:26:50;99284.97;;;28.49;33.73
60019;BME280;45870;42.528;26.740;2023-05-23T12:29:21;99287.53;;;27.60;33.97
60019;BME280;45870;42.528;26.740;2023-05-23T12:31:52;99289.97;;;28.08;32.82
60019;BME280;45870;42.528;26.740;2023-05-23T12:34:19;99273.75;;;27.95;34.21
60019;BME280;45870;42.528;26.740;2023-05-23T12:36:46;99275.03;;;28.48;34.29
60019;BME280;45870;42.528;26.740;2023-05-23T12:39:14;99269.47;;;28.28;34.44
60019;BME280;45870;42.528;26.740;2023-05-23T12:41:44;99272.28;;;29.24;33.12
60019;BME280;45870;42.528;26.740;2023-05-23T12:44:10;99280.56;;;28.13;33.91
60019;BME280;45870;42.528;26.740;2023-05-23T12:46:39;99265.56;;;29.25;32.44
60019;BME280;45870;42.528;26.740;2023-05-23T12:49:05;99285.31;;;27.38;36.36
60019;BME280;45870;42.528;26.740;2023-05-23T12:51:31;99257.66;;;28.51;35.07
60019;BME280;45870;42.528;26.740;2023-05-23T12:53:57;99270.47;;;26.22;38.89
60019;BME280;45870;42.528;26.740;2023-05-23T12:56:23;99292.50;;;25.05;41.38
60019;BME280;45870;42.528;26.740;2023-05-23T12:58:49;99304.53;;;25.00;43.66
60019;BME280;45870;42.528;26.740;2023-05-23T13:01:14;99301.22;;;24.15;48.08
60019;BME280;45870;42.528;26.740;2023-05-23T13:03:40;99323.81;;;24.00;47.34
60019;BME280;45870;42.528;26.740;2023-05-23T13:06:06;99313.81;;;24.54;44.42
60019;BME280;45870;42.528;26.740;2023-05-23T13:08:32;99321.22;;;25.57;42.21
60019;BME280;45870;42.528;26.740;2023-05-23T13:10:58;99325.19;;;25.48;42.58
60019;BME280;45870;42.528;26.740;2023-05-23T13:13:24;99321.78;;;24.97;44.82
60019;BME280;45870;42.528;26.740;2023-05-23T13:15:52;99338.81;;;24.99;47.39
60019;BME280;45870;42.528;26.740;2023-05-23T13:18:18;99330.25;;;24.71;49.24
60019;BME280;45870;42.528;26.740;2023-05-23T13:20:44;99326.16;;;25.52;47.73
60019;BME280;45870;42.528;26.740;2023-05-23T13:23:10;99331.59;;;26.17;45.91
60019;BME280;45870;42.528;26.740;2023-05-23T13:25:36;99320.56;;;26.69;45.40
60019;BME280;45870;42.528;26.740;2023-05-23T13:28:02;99341.13;;;25.51;49.87
60019;BME280;45870;42.528;26.740;2023-05-23T13:30:28;99339.59;;;24.79;50.76
60019;BME280;45870;42.528;26.740;2023-05-23T13:32:53;99341.78;;;25.93;48.34
60019;BME280;45870;42.528;26.740;2023-05-23T13:35:19;99333.22;;;25.08;48.30
60019;BME280;45870;42.528;26.740;2023-05-23T13:37:45;99326.13;;;26.09;46.73
60019;BME280;45870;42.528;26.740;2023-05-23T13:40:15;99283.69;;;25.56;49.12